createdAt,value
2018-12-16T00:01:20.291Z,-1.5
2018-12-16T00:06:47.826Z,-1.5
2018-12-16T00:12:14.440Z,-1.5
2018-12-16T00:17:42.088Z,-1.5
2018-12-16T00:23:08.663Z,-1.5
2018-12-16T00:28:36.222Z,-1.5
2018-12-16T00:34:04.212Z,-1.6
2018-12-16T00:44:58.090Z,-1.6
2018-12-16T01:12:13.362Z,-1.7
2018-12-16T01:17:39.962Z,-1.7
2018-12-16T01:28:33.978Z,-1.7
2018-12-16T01:34:00.802Z,-1.7
2018-12-16T01:39:27.183Z,-1.7
2018-12-16T01:44:53.723Z,-1.7
2018-12-16T01:50:20.587Z,-1.7
2018-12-16T01:55:46.865Z,-1.7
2018-12-16T02:01:14.534Z,-1.8
2018-12-16T02:06:41.065Z,-1.8
2018-12-16T02:12:07.630Z,-1.8
2018-12-16T02:17:34.258Z,-1.8
2018-12-16T02:23:00.849Z,-1.8
2018-12-16T02:28:27.340Z,-1.9
2018-12-16T02:33:54.996Z,-1.9
2018-12-16T02:39:21.835Z,-1.9
2018-12-16T02:44:48.137Z,-1.9
2018-12-16T02:50:14.686Z,-1.9
2018-12-16T02:55:41.299Z,-1.9
2018-12-16T03:01:08.897Z,-1.9
2018-12-16T03:06:35.479Z,-1.9
2018-12-16T03:12:02.010Z,-1.9
2018-12-16T03:17:29.566Z,-1.9
2018-12-16T03:22:57.198Z,-1.9
2018-12-16T03:28:24.770Z,-1.9
2018-12-16T03:33:51.296Z,-1.8
2018-12-16T03:39:18.975Z,-1.7
2018-12-16T03:44:46.447Z,-1.7
2018-12-16T03:50:14.064Z,-1.6
2018-12-16T03:55:41.727Z,-1.6
2018-12-16T04:01:08.307Z,-1.6
2018-12-16T04:06:34.773Z,-1.6
2018-12-16T04:12:02.490Z,-1.6
2018-12-16T04:17:29.190Z,-1.6
2018-12-16T04:22:56.652Z,-1.6
2018-12-16T04:28:24.816Z,-1.6
2018-12-16T04:33:51.790Z,-1.6
2018-12-16T04:39:19.407Z,-1.6
2018-12-16T04:44:46.134Z,-1.6
2018-12-16T04:50:14.862Z,-1.6
2018-12-16T04:55:41.337Z,-1.6
2018-12-16T05:01:07.738Z,-1.6
2018-12-16T05:06:34.436Z,-1.6
2018-12-16T05:12:02.089Z,-1.6
2018-12-16T05:17:28.552Z,-1.6
2018-12-16T05:22:56.158Z,-1.6
2018-12-16T05:28:23.699Z,-1.6
2018-12-16T05:33:51.373Z,-1.6
2018-12-16T05:39:18.890Z,-1.6
2018-12-16T05:44:46.454Z,-1.6
2018-12-16T05:50:14.030Z,-1.5
2018-12-16T05:55:41.666Z,-1.5
2018-12-16T06:01:08.245Z,-1.4
2018-12-16T06:06:34.937Z,-1.4
2018-12-16T06:12:02.854Z,-1.4
2018-12-16T06:17:29.182Z,-1.4
2018-12-16T06:22:56.795Z,-1.4
2018-12-16T06:28:23.337Z,-1.4
2018-12-16T06:33:49.976Z,-1.4
2018-12-16T06:39:17.591Z,-1.4
2018-12-16T06:44:44.131Z,-1.4
2018-12-16T06:50:10.810Z,-1.4
2018-12-16T06:55:43.191Z,-1.4
2018-12-16T07:01:05.964Z,-1.4
2018-12-16T07:06:32.603Z,-1.3
2018-12-16T07:12:00.214Z,-1.3
2018-12-16T07:17:26.820Z,-1.3
2018-12-16T07:22:54.671Z,-1.2
2018-12-16T07:28:21.132Z,-1.2
2018-12-16T07:33:48.703Z,-1.1
2018-12-16T07:39:15.306Z,-1.1
2018-12-16T07:44:43.050Z,-1
2018-12-16T07:50:09.676Z,-1
2018-12-16T07:55:36.221Z,-1
2018-12-16T08:01:03.869Z,-0.9
2018-12-16T08:06:30.641Z,-0.9
2018-12-16T08:11:57.177Z,-0.8
2018-12-16T08:17:24.806Z,-0.7
2018-12-16T08:22:52.491Z,-0.7
2018-12-16T08:28:19.129Z,-0.7
2018-12-16T08:33:46.811Z,-0.7
2018-12-16T08:39:13.402Z,-0.7
2018-12-16T08:44:41.124Z,-0.7
2018-12-16T08:50:08.795Z,-0.7
2018-12-16T08:55:35.471Z,-0.6
2018-12-16T09:01:02.167Z,-0.6
2018-12-16T09:06:28.802Z,-0.6
2018-12-16T09:11:56.422Z,-0.6
2018-12-16T09:17:23.046Z,-0.5
2018-12-16T09:22:50.765Z,-0.5
2018-12-16T09:28:17.477Z,-0.5
2018-12-16T09:33:44.148Z,-0.4
2018-12-16T09:39:10.770Z,-0.4
2018-12-16T09:44:38.388Z,-0.4
2018-12-16T09:50:05.034Z,-0.3
2018-12-16T09:55:31.767Z,-0.3
2018-12-16T10:00:59.401Z,-0.2
2018-12-16T10:06:26.076Z,-0.2
2018-12-16T10:11:52.794Z,-0.2
2018-12-16T10:17:20.705Z,-0.2
2018-12-16T10:22:47.193Z,-0.2
2018-12-16T10:28:13.863Z,-0.2
2018-12-16T10:33:41.614Z,-0.2
2018-12-16T10:39:08.270Z,-0.2
2018-12-16T10:44:35.051Z,-0.2
2018-12-16T10:50:02.630Z,-0.2
2018-12-16T10:55:29.344Z,-0.2
2018-12-16T11:00:56.499Z,-0.2
2018-12-16T11:06:22.659Z,-0.2
2018-12-16T11:11:51.184Z,-0.2
2018-12-16T11:17:18.061Z,-0.1
2018-12-16T11:22:45.717Z,-0.1
2018-12-16T11:28:13.394Z,-0.1
2018-12-16T11:33:41.325Z,-0.1
2018-12-16T11:39:09.136Z,-0.2
2018-12-16T11:44:36.570Z,-0.2
2018-12-16T11:50:03.267Z,-0.1
2018-12-16T11:55:31.193Z,-0.1
2018-12-16T12:00:57.609Z,-0.1
2018-12-16T12:06:25.305Z,-0.1
2018-12-16T12:11:52.980Z,-0.2
2018-12-16T12:17:22.450Z,-0.2
2018-12-16T12:22:48.350Z,-0.2
2018-12-16T12:28:15.008Z,-0.1
2018-12-16T12:33:41.815Z,-0.1
2018-12-16T12:39:09.386Z,-0.1
2018-12-16T12:44:37.183Z,0
2018-12-16T12:50:04.836Z,0
2018-12-16T12:55:31.534Z,0
2018-12-16T13:00:58.254Z,0
2018-12-16T13:06:24.954Z,-0.1
2018-12-16T13:11:51.679Z,-0.1
2018-12-16T13:17:18.258Z,-0.1
2018-12-16T13:22:45.947Z,-0.1
2018-12-16T13:28:14.744Z,-0.1
2018-12-16T13:33:41.435Z,-0.1
2018-12-16T13:39:08.980Z,-0.1
2018-12-16T13:44:36.726Z,-0.1
2018-12-16T13:50:04.407Z,-0.1
2018-12-16T13:55:31.106Z,-0.2
2018-12-16T14:00:57.818Z,-0.2
2018-12-16T14:06:24.509Z,-0.2
2018-12-16T14:11:51.151Z,-0.2
2018-12-16T14:17:18.859Z,-0.3
2018-12-16T14:22:45.422Z,-0.3
2018-12-16T14:28:12.154Z,-0.3
2018-12-16T14:33:38.875Z,-0.3
2018-12-16T14:39:05.489Z,-0.3
2018-12-16T14:44:32.252Z,-0.4
2018-12-16T14:49:58.977Z,-0.4
2018-12-16T14:55:25.480Z,-0.4
2018-12-16T15:00:53.121Z,-0.4
2018-12-16T15:06:20.814Z,-0.4
2018-12-16T15:11:48.449Z,-0.4
2018-12-16T15:17:15.079Z,-0.5
2018-12-16T15:22:42.757Z,-0.5
2018-12-16T15:28:09.651Z,-0.5
2018-12-16T15:33:36.147Z,-0.5
2018-12-16T15:39:02.879Z,-0.5
2018-12-16T15:44:29.545Z,-0.5
2018-12-16T15:50:03.514Z,-0.5
2018-12-16T15:55:22.727Z,-0.5
2018-12-16T16:00:49.437Z,-0.5
2018-12-16T16:06:17.080Z,-0.5
2018-12-16T16:11:44.795Z,-0.5
2018-12-16T16:17:12.054Z,-0.5
2018-12-16T16:22:38.088Z,-0.5
2018-12-16T16:28:04.798Z,-0.6
2018-12-16T16:33:32.356Z,-0.6
2018-12-16T16:39:00.029Z,-0.6
2018-12-16T16:44:26.768Z,-0.6
2018-12-16T16:49:53.295Z,-0.6
2018-12-16T16:55:20.057Z,-0.6
2018-12-16T17:00:46.670Z,-0.6
2018-12-16T17:06:14.921Z,-0.6
2018-12-16T17:11:42.007Z,-0.6
2018-12-16T17:17:09.681Z,-0.6
2018-12-16T17:22:37.322Z,-0.6
2018-12-16T17:28:05.019Z,-0.6
2018-12-16T17:33:32.898Z,-0.6
2018-12-16T17:39:00.254Z,-0.5
2018-12-16T17:44:27.988Z,-0.5
2018-12-16T17:49:54.520Z,-0.5
2018-12-16T17:55:22.300Z,-0.5
2018-12-16T18:00:49.004Z,-0.5
2018-12-16T18:06:15.549Z,-0.5
2018-12-16T18:11:42.240Z,-0.5
2018-12-16T18:17:08.835Z,-0.5
2018-12-16T18:22:35.525Z,-0.6
2018-12-16T18:28:02.249Z,-0.6
2018-12-16T18:33:29.793Z,-0.6
2018-12-16T18:38:56.487Z,-0.6
2018-12-16T18:44:24.181Z,-0.6
2018-12-16T18:49:53.404Z,-0.6
2018-12-16T18:55:18.487Z,-0.6
2018-12-16T19:00:45.184Z,-0.6
2018-12-16T19:06:12.694Z,-0.6
2018-12-16T19:11:39.341Z,-0.7
2018-12-16T19:17:06.976Z,-0.7
2018-12-16T19:22:34.830Z,-0.7
2018-12-16T19:28:01.270Z,-0.7
2018-12-16T19:33:28.962Z,-0.7
2018-12-16T19:38:56.557Z,-0.7
2018-12-16T19:44:24.236Z,-0.8
2018-12-16T19:49:52.313Z,-0.7
2018-12-16T19:55:18.485Z,-0.8
2018-12-16T20:00:45.355Z,-0.8
2018-12-16T20:06:12.841Z,-0.8
2018-12-16T20:11:39.409Z,-0.8
2018-12-16T20:17:07.029Z,-0.8
2018-12-16T20:22:33.634Z,-0.8
2018-12-16T20:28:01.290Z,-0.7
2018-12-16T20:33:28.007Z,-0.7
2018-12-16T20:38:54.540Z,-0.7
2018-12-16T20:44:22.203Z,-0.8
2018-12-16T20:49:49.811Z,-0.8
2018-12-16T20:55:16.450Z,-0.8
2018-12-16T21:00:44.090Z,-0.9
2018-12-16T21:06:11.328Z,-0.9
2018-12-16T21:11:38.406Z,-0.9
2018-12-16T21:17:05.983Z,-0.9
2018-12-16T21:22:32.612Z,-0.9
2018-12-16T21:28:00.238Z,-0.8
2018-12-16T21:33:26.997Z,-0.8
2018-12-16T21:38:53.484Z,-0.8
2018-12-16T21:44:21.363Z,-0.8
2018-12-16T21:49:48.912Z,-0.8
2018-12-16T21:55:16.412Z,-0.8
2018-12-16T22:00:43.003Z,-0.8
2018-12-16T22:06:09.792Z,-0.8
2018-12-16T22:11:37.325Z,-0.8
2018-12-16T22:17:05.014Z,-0.8
2018-12-16T22:22:32.171Z,-0.8
2018-12-16T22:27:58.213Z,-0.8
2018-12-16T22:33:25.825Z,-0.8
2018-12-16T22:38:53.506Z,-0.8
2018-12-16T22:44:20.102Z,-0.8
2018-12-16T22:49:46.745Z,-0.8
2018-12-16T22:55:14.407Z,-0.8
2018-12-16T23:00:42.088Z,-0.7
2018-12-16T23:06:09.569Z,-0.7
2018-12-16T23:11:36.297Z,-0.8
2018-12-16T23:17:03.913Z,-0.7
2018-12-16T23:22:31.596Z,-0.7
2018-12-16T23:27:58.219Z,-0.7
2018-12-16T23:33:24.789Z,-0.7
2018-12-16T23:38:52.505Z,-0.7
2018-12-16T23:44:19.120Z,-0.7
2018-12-16T23:49:45.792Z,-0.7
2018-12-16T23:55:12.392Z,-0.7
